createdAt,value
2022-12-03T00:00:19.575Z,3.03
2022-12-03T00:03:28.505Z,2.99
2022-12-03T00:06:37.368Z,2.95
2022-12-03T00:09:46.368Z,2.93
2022-12-03T00:12:55.369Z,2.89
2022-12-03T00:16:04.462Z,2.92
2022-12-03T00:19:13.367Z,2.84
2022-12-03T00:22:22.367Z,2.81
2022-12-03T00:25:42.990Z,2.74
2022-12-03T00:28:56.303Z,2.79
2022-12-03T00:32:10.160Z,2.77
2022-12-03T00:35:19.368Z,2.68
2022-12-03T00:38:28.370Z,2.69
2022-12-03T00:41:37.365Z,2.70
2022-12-03T00:44:46.364Z,2.73
2022-12-03T00:47:55.366Z,2.75
2022-12-03T00:51:04.372Z,2.65
2022-12-03T00:54:13.363Z,2.56
2022-12-03T00:57:22.364Z,2.30
2022-12-03T01:00:31.362Z,2.44
2022-12-03T01:03:40.363Z,2.55
2022-12-03T01:06:49.366Z,2.59
2022-12-03T01:09:58.363Z,2.50
2022-12-03T01:13:07.366Z,2.32
2022-12-03T01:16:16.429Z,2.27
2022-12-03T01:19:25.365Z,2.28
2022-12-03T01:22:34.364Z,2.31
2022-12-03T01:25:43.365Z,2.38
2022-12-03T01:28:52.364Z,2.53
2022-12-03T01:32:22.364Z,2.62
2022-12-03T01:35:31.364Z,2.61
2022-12-03T01:38:40.365Z,2.64
2022-12-03T01:41:49.376Z,2.68
2022-12-03T01:44:58.784Z,2.69
2022-12-03T01:48:07.369Z,2.75
2022-12-03T01:51:17.305Z,2.76
2022-12-03T01:54:46.376Z,2.86
2022-12-03T01:58:07.698Z,2.87
2022-12-03T02:01:23.788Z,2.87
2022-12-03T02:04:34.471Z,2.87
2022-12-03T02:07:44.462Z,2.83
2022-12-03T02:10:53.303Z,2.86
2022-12-03T02:14:11.797Z,2.79
2022-12-03T02:17:25.487Z,2.77
2022-12-03T02:20:40.682Z,2.77
2022-12-03T02:24:10.473Z,2.74
2022-12-03T02:27:19.368Z,2.72
2022-12-03T02:30:34.074Z,2.65
2022-12-03T02:33:50.203Z,2.62
2022-12-03T02:37:04.529Z,2.60
2022-12-03T02:40:17.200Z,2.53
2022-12-03T02:43:26.413Z,2.51
2022-12-03T02:46:38.438Z,2.46
2022-12-03T02:49:48.410Z,2.43
2022-12-03T02:53:06.260Z,2.34
2022-12-03T02:56:22.281Z,2.33
2022-12-03T02:59:31.364Z,2.25
2022-12-03T03:02:49.589Z,2.20
2022-12-03T03:06:04.144Z,2.17
2022-12-03T03:09:17.648Z,2.13
2022-12-03T03:12:28.365Z,2.06
2022-12-03T03:15:44.494Z,2.02
2022-12-03T03:18:57.200Z,2.02
2022-12-03T03:22:11.153Z,1.96
2022-12-03T03:25:26.301Z,1.86
2022-12-03T03:28:43.247Z,1.80
2022-12-03T03:31:59.888Z,1.76
2022-12-03T03:35:13.366Z,1.76
2022-12-03T03:38:23.301Z,1.69
2022-12-03T03:41:40.561Z,1.70
2022-12-03T03:44:53.341Z,1.66
2022-12-03T03:48:08.141Z,1.65
2022-12-03T03:51:19.366Z,1.70
2022-12-03T03:54:29.093Z,1.66
2022-12-03T03:57:37.780Z,1.72
2022-12-03T04:00:47.764Z,1.73
2022-12-03T04:04:00.434Z,1.71
2022-12-03T04:07:06.062Z,1.80
2022-12-03T04:10:44.640Z,1.80
2022-12-03T04:14:01.078Z,1.74
2022-12-03T04:17:13.365Z,1.80
2022-12-03T04:20:22.468Z,1.81
2022-12-03T04:23:31.363Z,1.80
2022-12-03T04:27:01.365Z,1.84
2022-12-03T04:30:10.367Z,1.81
2022-12-03T04:33:38.800Z,1.82
2022-12-03T04:36:49.365Z,1.77
2022-12-03T04:39:59.404Z,1.88
2022-12-03T04:43:08.301Z,1.90
2022-12-03T04:46:17.481Z,1.89
2022-12-03T04:49:26.406Z,1.93
2022-12-03T04:52:39.932Z,1.95
2022-12-03T04:55:52.660Z,1.94
2022-12-03T04:59:07.233Z,1.97
2022-12-03T05:02:22.436Z,1.98
2022-12-03T05:05:39.952Z,1.84
2022-12-03T05:08:52.627Z,1.86
2022-12-03T05:12:06.009Z,1.93
2022-12-03T05:15:19.365Z,1.90
2022-12-03T05:18:28.376Z,1.86
2022-12-03T05:21:37.363Z,1.87
2022-12-03T05:24:47.406Z,1.82
2022-12-03T05:27:56.300Z,1.87
2022-12-03T05:31:06.578Z,1.86
2022-12-03T05:34:14.712Z,1.82
2022-12-03T05:37:22.781Z,1.77
2022-12-03T05:40:31.683Z,1.82
2022-12-03T05:43:41.410Z,1.85
2022-12-03T05:46:50.309Z,1.78
2022-12-03T06:38:42.740Z,1.91
2022-12-03T06:42:10.781Z,1.98
2022-12-03T06:45:25.757Z,2.02
2022-12-03T06:48:44.923Z,2.16
2022-12-03T06:51:59.697Z,2.20
2022-12-03T06:55:16.434Z,2.26
2022-12-03T06:58:31.182Z,2.26
2022-12-03T07:01:44.266Z,2.32
2022-12-03T07:04:54.981Z,2.35
2022-12-03T07:08:08.550Z,2.38
2022-12-03T07:11:34.780Z,2.41
2022-12-03T07:21:40.081Z,2.58
2022-12-03T07:35:23.599Z,2.61
2022-12-03T07:38:37.293Z,2.56
2022-12-03T07:41:55.956Z,2.56
2022-12-03T07:48:46.754Z,2.64
2022-12-03T07:52:08.417Z,2.68
2022-12-03T07:55:17.450Z,2.80
2022-12-03T08:05:46.493Z,3.02
2022-12-03T08:08:55.538Z,3.05
2022-12-03T08:12:10.482Z,3.11
2022-12-03T08:15:39.331Z,3.16
2022-12-03T08:19:02.961Z,3.12
2022-12-03T08:22:52.627Z,3.23
2022-12-03T08:29:55.784Z,3.25
2022-12-03T08:33:41.715Z,3.34
2022-12-03T08:37:12.947Z,3.31
2022-12-03T08:40:43.696Z,3.43
2022-12-03T08:43:56.809Z,3.47
2022-12-03T08:47:27.322Z,3.54
2022-12-03T08:50:55.527Z,3.67
2022-12-03T08:54:23.885Z,3.68
2022-12-03T09:01:45.905Z,3.89
2022-12-03T09:04:56.486Z,3.92
2022-12-03T09:11:38.710Z,3.87
2022-12-03T09:14:54.551Z,3.88
2022-12-03T09:18:26.449Z,3.98
2022-12-03T09:32:58.733Z,4.29
2022-12-03T09:36:30.204Z,4.46
2022-12-03T09:39:39.963Z,4.44
2022-12-03T09:44:03.171Z,4.44
2022-12-03T09:47:15.332Z,4.52
2022-12-03T09:50:36.370Z,4.45
2022-12-03T09:53:52.113Z,4.59
2022-12-03T10:04:28.019Z,5.37
2022-12-03T10:07:38.515Z,5.44
2022-12-03T10:14:14.283Z,5.45
2022-12-03T10:24:49.772Z,7.79
2022-12-03T10:32:04.672Z,7.85
2022-12-03T10:36:06.343Z,7.54
2022-12-03T10:39:27.563Z,8.24
2022-12-03T10:42:35.881Z,8.26
2022-12-03T10:45:46.038Z,9.48
2022-12-03T10:49:13.501Z,10.31
2022-12-03T10:52:26.152Z,10.62
2022-12-03T10:55:40.302Z,10.57
2022-12-03T10:58:57.135Z,11.21
2022-12-03T11:02:13.059Z,11.89
2022-12-03T11:05:35.125Z,12.35
2022-12-03T11:08:54.716Z,12.54
2022-12-03T11:12:14.063Z,12.50
2022-12-03T11:15:49.581Z,13.01
2022-12-03T11:22:48.655Z,13.67
2022-12-03T11:30:04.980Z,13.79
2022-12-03T11:37:22.991Z,14.06
2022-12-03T11:40:39.795Z,14.25
2022-12-03T11:51:34.012Z,13.89
2022-12-03T11:54:42.357Z,13.76
2022-12-03T12:35:57.139Z,13.10
2022-12-03T12:39:07.029Z,12.86
2022-12-03T12:42:37.779Z,12.59
2022-12-03T12:45:47.415Z,12.50
2022-12-03T12:49:11.350Z,12.33
2022-12-03T12:55:44.826Z,12.15
2022-12-03T12:58:59.889Z,12.21
2022-12-03T13:02:40.326Z,12.04
2022-12-03T13:05:56.778Z,12.08
2022-12-03T13:09:34.176Z,11.94
2022-12-03T13:12:43.618Z,11.43
2022-12-03T13:16:13.475Z,10.98
2022-12-03T13:19:46.707Z,10.78
2022-12-03T13:22:59.471Z,10.64
2022-12-03T13:26:40.536Z,10.58
2022-12-03T13:30:14.413Z,10.31
2022-12-03T13:33:32.848Z,10.02
2022-12-03T13:40:24.079Z,10.15
2022-12-03T13:43:44.499Z,10.14
2022-12-03T13:46:55.033Z,9.98
2022-12-03T13:50:08.571Z,9.74
2022-12-03T13:53:24.942Z,9.54
2022-12-03T13:56:36.067Z,9.43
2022-12-03T13:59:46.599Z,9.29
2022-12-03T14:03:00.606Z,9.12
2022-12-03T14:06:14.592Z,8.93
2022-12-03T14:09:25.471Z,8.83
2022-12-03T14:12:35.112Z,8.72
2022-12-03T14:15:43.579Z,8.58
2022-12-03T14:18:52.683Z,8.46
2022-12-03T14:22:01.591Z,8.40
2022-12-03T14:25:10.578Z,8.27
2022-12-03T14:28:19.382Z,8.19
2022-12-03T14:31:28.528Z,8.11
2022-12-03T14:34:37.367Z,8.02
2022-12-03T14:37:46.395Z,7.87
2022-12-03T14:40:55.373Z,7.80
2022-12-03T14:44:05.005Z,7.64
2022-12-03T14:47:14.718Z,7.50
2022-12-03T14:50:23.433Z,7.48
2022-12-03T14:53:32.425Z,7.44
2022-12-03T14:56:41.422Z,7.37
2022-12-03T15:00:00.165Z,7.28
2022-12-03T15:03:18.236Z,7.27
2022-12-03T15:06:28.367Z,7.16
2022-12-03T15:09:37.376Z,7.19
2022-12-03T15:12:46.385Z,7.10
2022-12-03T15:15:55.376Z,7.04
2022-12-03T15:19:04.376Z,6.87
2022-12-03T15:22:13.688Z,6.74
2022-12-03T15:25:27.400Z,6.63
2022-12-03T15:28:46.690Z,6.51
2022-12-03T15:32:01.392Z,6.34
2022-12-03T15:35:10.379Z,6.27
2022-12-03T15:38:19.390Z,6.19
2022-12-03T15:41:48.389Z,6.10
2022-12-03T15:44:58.370Z,5.97
2022-12-03T15:48:08.120Z,5.88
2022-12-03T15:51:16.678Z,5.78
2022-12-03T15:54:25.377Z,5.71
2022-12-03T15:57:34.367Z,5.65
2022-12-03T16:00:44.422Z,5.52
2022-12-03T16:03:53.306Z,5.53
2022-12-03T16:07:02.309Z,5.54
2022-12-03T16:10:12.154Z,5.43
2022-12-03T16:13:20.305Z,5.39
2022-12-03T16:16:29.457Z,5.31
2022-12-03T16:19:38.304Z,5.17
2022-12-03T16:22:47.412Z,5.09
2022-12-03T16:25:57.207Z,4.94
2022-12-03T16:29:05.422Z,4.90
2022-12-03T16:32:14.566Z,4.79
2022-12-03T16:35:23.302Z,4.81
2022-12-03T16:38:38.605Z,4.86
2022-12-03T16:41:55.594Z,4.91
2022-12-03T16:45:11.416Z,5.08
2022-12-03T16:48:20.411Z,5.19
2022-12-03T16:51:43.225Z,5.27
2022-12-03T16:54:58.281Z,5.28
2022-12-03T16:58:07.371Z,5.25
2022-12-03T17:01:17.162Z,5.24
2022-12-03T17:04:26.307Z,5.14
2022-12-03T17:07:42.729Z,5.09
2022-12-03T17:11:00.843Z,5.00
2022-12-03T17:14:13.374Z,4.95
2022-12-03T17:17:28.075Z,4.90
2022-12-03T17:20:51.343Z,4.86
2022-12-03T17:27:44.873Z,4.96
2022-12-03T17:31:01.468Z,4.96
2022-12-03T17:34:10.371Z,5.03
2022-12-03T17:37:18.837Z,5.03
2022-12-03T17:40:28.380Z,5.06
2022-12-03T17:43:37.373Z,5.04
2022-12-03T17:46:46.476Z,5.13
2022-12-03T17:49:56.702Z,5.16
2022-12-03T17:53:13.105Z,5.21
2022-12-03T17:56:27.834Z,5.17
2022-12-03T17:59:40.431Z,5.19
2022-12-03T18:02:52.264Z,5.18
2022-12-03T18:06:01.370Z,5.19
2022-12-03T18:09:10.368Z,5.26
2022-12-03T18:12:17.960Z,5.26
2022-12-03T18:15:28.369Z,5.36
2022-12-03T18:18:36.025Z,5.32
2022-12-03T18:21:46.368Z,5.28
2022-12-03T18:24:55.372Z,5.33
2022-12-03T18:28:04.376Z,5.35
2022-12-03T18:31:28.129Z,5.33
2022-12-03T18:34:43.367Z,5.30
2022-12-03T18:37:53.099Z,5.33
2022-12-03T18:41:01.368Z,5.30
2022-12-03T18:44:11.718Z,5.28
2022-12-03T18:47:28.233Z,5.19
2022-12-03T18:50:42.131Z,5.21
2022-12-03T18:53:57.134Z,5.23
2022-12-03T18:57:07.366Z,5.21
2022-12-03T19:00:16.367Z,5.19
2022-12-03T19:03:25.408Z,5.16
2022-12-03T19:06:35.408Z,5.15
2022-12-03T19:09:47.951Z,5.14
2022-12-03T19:13:04.238Z,5.10
2022-12-03T19:16:18.162Z,5.13
2022-12-03T19:19:31.368Z,5.09
2022-12-03T19:22:40.367Z,5.07
2022-12-03T19:26:05.647Z,5.06
2022-12-03T19:29:19.370Z,5.06
2022-12-03T19:32:28.367Z,5.03
2022-12-03T19:35:41.393Z,4.97
2022-12-03T19:38:56.680Z,5.00
2022-12-03T19:42:10.578Z,4.94
2022-12-03T19:45:24.075Z,4.91
2022-12-03T19:48:34.368Z,4.90
2022-12-03T19:51:43.366Z,4.87
2022-12-03T19:55:01.070Z,4.76
2022-12-03T19:58:17.392Z,4.72
2022-12-03T20:01:31.421Z,4.75
2022-12-03T20:04:40.366Z,4.70
2022-12-03T20:07:49.400Z,4.73
2022-12-03T20:10:58.368Z,4.71
2022-12-03T20:14:18.834Z,4.70
2022-12-03T20:17:33.620Z,4.60
2022-12-03T20:20:46.368Z,4.61
2022-12-03T20:23:55.366Z,4.53
2022-12-03T20:27:04.372Z,4.51
2022-12-03T20:30:13.368Z,4.48
2022-12-03T20:33:22.367Z,4.49
2022-12-03T20:36:31.369Z,4.48
2022-12-03T20:39:40.369Z,4.49
2022-12-03T20:42:50.198Z,4.48
2022-12-03T20:46:02.703Z,4.48
2022-12-03T20:49:19.568Z,4.46
2022-12-03T20:52:34.224Z,4.46
2022-12-03T20:55:46.368Z,4.46
2022-12-03T20:58:55.682Z,4.47
2022-12-03T21:02:04.429Z,4.41
2022-12-03T21:05:13.367Z,4.42
2022-12-03T21:08:40.226Z,4.43
2022-12-03T21:11:52.367Z,4.35
2022-12-03T21:15:01.472Z,4.35
2022-12-03T21:18:20.183Z,4.35
2022-12-03T21:21:35.501Z,4.30
2022-12-03T21:24:49.369Z,4.30
2022-12-03T21:27:58.369Z,4.34
2022-12-03T21:31:08.151Z,4.31
2022-12-03T21:34:17.302Z,4.26
2022-12-03T21:37:27.022Z,4.30
2022-12-03T21:40:35.414Z,4.27
2022-12-03T21:43:44.410Z,4.25
2022-12-03T21:47:09.146Z,4.32
2022-12-03T21:50:22.367Z,4.32
2022-12-03T21:53:31.369Z,4.35
2022-12-03T21:56:40.367Z,4.24
2022-12-03T21:59:48.851Z,4.24
2022-12-03T22:02:58.455Z,4.23
2022-12-03T22:06:07.368Z,4.25
2022-12-03T22:09:20.552Z,4.24
2022-12-03T22:12:41.922Z,4.22
2022-12-03T22:15:55.318Z,4.15
2022-12-03T22:19:04.368Z,4.13
2022-12-03T22:22:13.373Z,4.06
2022-12-03T22:25:22.370Z,3.83
2022-12-03T22:28:31.369Z,3.87
2022-12-03T22:31:40.368Z,3.80
2022-12-03T22:34:50.407Z,3.61
2022-12-03T22:37:59.304Z,3.62
2022-12-03T22:41:12.112Z,3.67
2022-12-03T22:44:25.327Z,3.66
2022-12-03T22:47:41.070Z,3.57
2022-12-03T22:50:55.364Z,3.64
2022-12-03T22:54:15.004Z,3.68
2022-12-03T22:57:29.135Z,3.65
2022-12-03T23:00:43.366Z,3.72
2022-12-03T23:03:52.418Z,3.79
2022-12-03T23:07:01.366Z,3.76
2022-12-03T23:10:10.366Z,3.71
2022-12-03T23:13:20.718Z,3.69
2022-12-03T23:16:37.029Z,3.56
2022-12-03T23:19:53.916Z,3.50
2022-12-03T23:23:07.259Z,3.47
2022-12-03T23:26:17.100Z,3.43
2022-12-03T23:29:26.095Z,3.37
2022-12-03T23:32:35.406Z,3.39
2022-12-03T23:35:44.405Z,3.32
2022-12-03T23:38:53.412Z,3.31
2022-12-03T23:42:02.708Z,3.29
2022-12-03T23:45:11.407Z,3.23
2022-12-03T23:48:20.409Z,3.17
2022-12-03T23:51:29.718Z,3.10
2022-12-03T23:54:38.717Z,3.08
2022-12-03T23:57:47.408Z,3.01
